Time;durP1;ratioP1;P1;durP2;ratioP2;P2;SDS_P1;SDS_P2;PMS_P1;PMS_P2;Temp;Humidity;BMP_temperature;BMP_pressure;BME280_temperature;BME280_humidity;BME280_pressure;Samples;Min_cycle;Max_cycle;Signal;HPM_P1;HPM_P2
2022/03/30 00:01:04;;;;;;;10.68;1.88;;;;;;;6.92;nan;100745.47;5008562;28;20025;-47
2022/03/30 00:03:29;;;;;;;6.07;1.20;;;;;;;6.89;nan;100737.94;5010427;28;20084;-47
2022/03/30 00:05:55;;;;;;;4.13;1.85;;;;;;;6.90;nan;100731.56;5011104;28;20100;-48
2022/03/30 00:08:21;;;;;;;5.38;1.63;;;;;;;6.89;nan;100735.28;5009857;28;20029;-47
2022/03/30 00:10:46;;;;;;;5.63;1.50;;;;;;;6.88;nan;100736.31;5009068;28;20021;-47
2022/03/30 00:13:12;;;;;;;6.40;1.50;;;;;;;6.86;nan;100735.72;5007520;28;20122;-47
2022/03/30 00:15:38;;;;;;;7.53;1.38;;;;;;;6.87;nan;100736.53;5007525;28;20044;-47
2022/03/30 00:18:03;;;;;;;6.85;1.40;;;;;;;6.84;nan;100727.16;5011279;28;20033;-47
2022/03/30 00:20:29;;;;;;;6.18;1.67;;;;;;;6.85;nan;100734.09;5005512;28;20026;-47
2022/03/30 00:22:55;;;;;;;7.55;1.73;;;;;;;6.86;nan;100730.41;5007133;28;20053;-48
2022/03/30 00:25:20;;;;;;;7.88;1.40;;;;;;;6.84;nan;100729.00;5008139;28;20657;-47
2022/03/30 00:27:46;;;;;;;8.60;1.60;;;;;;;6.83;nan;100732.69;5008949;28;20037;-48
2022/03/30 00:30:18;;;;;;;6.05;1.40;;;;;;;6.83;nan;100732.69;5008816;28;20064;-47
2022/03/30 00:32:44;;;;;;;8.70;1.75;;;;;;;6.84;nan;100729.81;5004182;28;20036;-47
2022/03/30 00:35:10;;;;;;;7.55;2.00;;;;;;;6.81;nan;100724.09;5007680;28;20551;-47
2022/03/30 00:37:36;;;;;;;6.93;1.67;;;;;;;6.80;nan;100736.59;5004678;28;20066;-48
2022/03/30 00:40:05;;;;;;;5.50;1.38;;;;;;;6.79;nan;100732.31;5008223;28;20034;-48
2022/03/30 00:42:31;;;;;;;6.55;1.42;;;;;;;6.77;nan;100728.25;5003262;28;20431;-48
2022/03/30 00:44:56;;;;;;;7.07;1.73;;;;;;;6.78;nan;100730.69;5005479;28;20026;-47
2022/03/30 00:47:26;;;;;;;3.30;0.90;;;;;;;6.78;nan;100733.34;5006338;28;20025;-47
2022/03/30 00:49:53;;;;;;;7.28;1.85;;;;;;;6.78;nan;100728.03;5006747;28;20022;-48
2022/03/30 00:52:20;;;;;;;7.20;1.73;;;;;;;6.77;nan;100731.72;5005970;28;20561;-48
2022/03/30 00:54:49;;;;;;;5.80;1.58;;;;;;;6.78;nan;100728.03;5011502;28;20513;-47
2022/03/30 00:57:17;;;;;;;9.43;1.67;;;;;;;6.73;nan;100719.09;5011608;28;20443;-48
2022/03/30 00:59:43;;;;;;;3.63;1.88;;;;;;;6.71;nan;100727.28;5010158;28;20025;-47
2022/03/30 01:02:09;;;;;;;8.45;1.58;;;;;;;6.70;nan;100725.66;5009170;28;20347;-50
2022/03/30 01:04:35;;;;;;;9.73;1.58;;;;;;;6.64;nan;100722.06;5006893;28;20133;-47
2022/03/30 01:07:01;;;;;;;10.88;2.10;;;;;;;6.63;nan;100719.59;5005757;28;20057;-48
2022/03/30 01:09:27;;;;;;;5.22;1.73;;;;;;;6.63;nan;100714.28;5008841;28;20068;-48
2022/03/30 01:11:53;;;;;;;4.07;1.25;;;;;;;6.61;nan;100719.81;5010672;28;20025;-49
2022/03/30 01:14:19;;;;;;;4.93;1.55;;;;;;;6.64;nan;100722.06;5009102;28;20119;-49
2022/03/30 01:16:45;;;;;;;5.90;1.55;;;;;;;6.65;nan;100717.56;5011265;28;20026;-47
2022/03/30 01:19:12;;;;;;;9.63;1.80;;;;;;;6.65;nan;100713.03;5006871;28;20034;-48
2022/03/30 01:21:39;;;;;;;6.13;1.60;;;;;;;6.65;nan;100718.34;5006924;28;20467;-47
2022/03/30 01:24:06;;;;;;;7.38;1.33;;;;;;;6.66;nan;100717.31;5009280;28;20022;-48
2022/03/30 01:26:32;;;;;;;7.90;2.53;;;;;;;6.65;nan;100707.72;5007904;28;21218;-47
2022/03/30 01:28:58;;;;;;;4.85;1.23;;;;;;;6.64;nan;100707.91;5008885;28;20033;-46
2022/03/30 01:34:08;;;;;;;5.55;1.50;;;;;;;6.59;nan;100705.91;5009514;28;20523;-47
2022/03/30 01:36:37;;;;;;;7.22;1.92;;;;;;;6.57;nan;100707.19;5003038;28;20038;-48
2022/03/30 01:39:04;;;;;;;10.30;1.83;;;;;;;6.56;nan;100710.88;5010970;28;20041;-48
2022/03/30 01:41:30;;;;;;;5.65;2.00;;;;;;;6.55;nan;100701.28;5001088;28;20034;-48
2022/03/30 01:43:56;;;;;;;9.65;2.20;;;;;;;6.51;nan;100702.75;5007507;28;20030;-49
2022/03/30 01:46:22;;;;;;;6.10;1.17;;;;;;;6.49;nan;100697.66;5010501;28;20025;-48
2022/03/30 01:48:48;;;;;;;5.45;1.65;;;;;;;6.48;nan;100696.03;5005357;28;20033;-48
2022/03/30 01:51:14;;;;;;;5.47;1.27;;;;;;;6.46;nan;100699.94;5006175;28;20022;-50
2022/03/30 01:53:40;;;;;;;7.80;1.85;;;;;;;6.44;nan;100697.50;5010279;28;20038;-53
2022/03/30 01:56:06;;;;;;;10.00;1.88;;;;;;;6.35;nan;100704.97;5004777;28;20030;-51
2022/03/30 01:58:32;;;;;;;5.55;1.55;;;;;;;6.28;nan;100698.91;5007093;28;20099;-49
2022/03/30 02:00:57;;;;;;;6.63;1.88;;;;;;;6.28;nan;100687.44;5007594;28;20052;-51
2022/03/30 02:03:23;;;;;;;5.63;1.85;;;;;;;6.25;nan;100686.03;5006615;28;20116;-50
2022/03/30 02:05:49;;;;;;;11.68;2.08;;;;;;;6.20;nan;100688.53;5008259;28;20017;-50
2022/03/30 02:08:14;;;;;;;9.32;1.48;;;;;;;6.19;nan;100694.91;5002619;28;20112;-50
2022/03/30 02:10:40;;;;;;;9.73;1.55;;;;;;;6.16;nan;100692.69;5008348;28;20026;-50
2022/03/30 02:13:06;;;;;;;7.20;1.75;;;;;;;6.10;nan;100688.22;5003599;28;20104;-51
2022/03/30 02:15:32;;;;;;;7.10;1.83;;;;;;;6.05;nan;100685.41;5001130;28;20116;-50
2022/03/30 02:17:59;;;;;;;7.68;2.03;;;;;;;5.99;nan;100688.97;5009117;28;20033;-48
2022/03/30 02:20:25;;;;;;;4.60;1.25;;;;;;;5.91;nan;100687.38;5008266;28;20407;-51
2022/03/30 02:22:50;;;;;;;10.70;1.45;;;;;;;5.85;nan;100690.06;5002137;28;20091;-51
2022/03/30 02:25:16;;;;;;;5.70;1.50;;;;;;;5.81;nan;100688.91;5004326;28;20021;-48
2022/03/30 02:27:42;;;;;;;7.20;1.52;;;;;;;5.78;nan;100686.69;4999745;28;20392;-51
2022/03/30 02:30:08;;;;;;;6.30;1.50;;;;;;;5.76;nan;100686.91;5005874;28;20454;-52
2022/03/30 02:32:36;;;;;;;7.88;1.98;;;;;;;5.73;nan;100685.47;5005319;28;20523;-51
2022/03/30 02:35:03;;;;;;;3.75;1.58;;;;;;;5.70;nan;100683.25;5006258;28;20033;-51
2022/03/30 02:37:28;;;;;;;9.35;1.70;;;;;;;5.68;nan;100680.00;5007482;28;20077;-51
2022/03/30 02:39:54;;;;;;;9.05;1.90;;;;;;;5.68;nan;100679.19;5004336;28;20123;-49
2022/03/30 02:42:20;;;;;;;6.68;1.50;;;;;;;5.65;nan;100677.78;5005484;28;20320;-49
2022/03/30 02:44:46;;;;;;;6.75;1.30;;;;;;;5.68;nan;100682.66;5004200;28;20022;-49
2022/03/30 02:47:11;;;;;;;8.70;2.33;;;;;;;5.66;nan;100676.75;5006764;28;20032;-50
2022/03/30 02:49:38;;;;;;;6.57;1.60;;;;;;;5.66;nan;100684.72;5008225;28;20030;-49
2022/03/30 02:52:04;;;;;;;9.07;2.28;;;;;;;5.66;nan;100682.06;5006446;28;20244;-48
2022/03/30 02:54:29;;;;;;;10.75;2.22;;;;;;;5.65;nan;100685.75;5007298;28;20029;-49
2022/03/30 02:56:55;;;;;;;4.10;1.33;;;;;;;5.63;nan;100687.81;5005530;28;20037;-50
2022/03/30 02:59:20;;;;;;;5.72;1.40;;;;;;;5.66;nan;100689.22;5003930;28;20041;-49
2022/03/30 03:01:47;;;;;;;7.03;1.30;;;;;;;5.67;nan;100682.88;5002471;28;20026;-51
2022/03/30 03:04:12;;;;;;;10.07;2.30;;;;;;;5.67;nan;100686.34;5003884;28;20101;-50
2022/03/30 03:06:38;;;;;;;10.32;1.55;;;;;;;5.66;nan;100691.88;5008770;28;20030;-50
2022/03/30 03:09:04;;;;;;;6.95;2.42;;;;;;;5.63;nan;100690.47;5007955;28;20190;-48
2022/03/30 03:11:29;;;;;;;9.10;1.90;;;;;;;5.65;nan;100684.94;5010377;28;20072;-50
2022/03/30 03:13:55;;;;;;;6.38;1.60;;;;;;;5.67;nan;100681.03;5010403;28;20296;-47
2022/03/30 03:16:20;;;;;;;9.30;1.75;;;;;;;5.69;nan;100691.44;5008939;28;20052;-54
2022/03/30 03:18:46;;;;;;;9.20;1.83;;;;;;;5.72;nan;100683.84;5005990;28;20162;-49
2022/03/30 03:21:12;;;;;;;5.72;1.80;;;;;;;5.73;nan;100685.47;5011424;28;20094;-48
2022/03/30 03:23:37;;;;;;;8.18;1.80;;;;;;;5.74;nan;100683.63;5012714;28;20044;-50
2022/03/30 03:26:03;;;;;;;5.30;1.30;;;;;;;5.75;nan;100685.28;5009491;28;20034;-52
2022/03/30 03:28:30;;;;;;;7.38;1.50;;;;;;;5.76;nan;100681.59;5010356;28;20545;-47
2022/03/30 03:30:55;;;;;;;3.13;1.02;;;;;;;5.76;nan;100682.41;5006893;28;20056;-48
2022/03/30 03:33:20;;;;;;;4.22;1.42;;;;;;;5.78;nan;100682.16;5010094;28;20475;-52
2022/03/30 03:35:47;;;;;;;15.32;2.22;;;;;;;5.79;nan;100680.31;5010675;28;20180;-48
2022/03/30 03:38:13;;;;;;;3.95;1.23;;;;;;;5.79;nan;100681.13;5009031;28;20026;-48
2022/03/30 03:40:40;;;;;;;7.38;1.38;;;;;;;5.78;nan;100679.50;5007965;28;20025;-51
2022/03/30 03:43:06;;;;;;;3.78;1.20;;;;;;;5.79;nan;100683.00;5007448;28;20124;-48
2022/03/30 03:45:32;;;;;;;4.75;1.70;;;;;;;5.78;nan;100687.50;5007614;28;20112;-47
2022/03/30 03:47:58;;;;;;;5.85;1.63;;;;;;;5.78;nan;100686.69;5012095;28;20036;-50
2022/03/30 03:50:25;;;;;;;5.65;1.60;;;;;;;5.78;nan;100684.84;5010398;28;20021;-50
2022/03/30 03:52:51;;;;;;;10.15;1.50;;;;;;;5.78;nan;100686.69;5011335;28;20506;-48
2022/03/30 03:55:17;;;;;;;6.63;1.33;;;;;;;5.75;nan;100685.28;5010062;28;20030;-50
2022/03/30 03:57:42;;;;;;;6.82;1.67;;;;;;;5.75;nan;100683.44;5006945;28;20538;-51
2022/03/30 04:00:10;;;;;;;4.22;1.42;;;;;;;5.74;nan;100688.94;5005756;28;20030;-48
2022/03/30 04:02:36;;;;;;;5.13;1.42;;;;;;;5.75;nan;100694.06;5009633;28;20069;-51
2022/03/30 04:05:02;;;;;;;11.45;2.65;;;;;;;5.73;nan;100692.63;5009859;28;20061;-50
2022/03/30 04:07:28;;;;;;;5.05;1.45;;;;;;;5.71;nan;100690.19;5007604;28;20471;-50
2022/03/30 04:09:54;;;;;;;4.50;1.40;;;;;;;5.70;nan;100683.25;5006010;28;20037;-48
2022/03/30 04:12:19;;;;;;;7.70;1.42;;;;;;;5.70;nan;100685.09;5012530;28;20038;-53
2022/03/30 04:14:45;;;;;;;5.80;1.40;;;;;;;5.69;nan;100686.13;5008699;28;20026;-49
2022/03/30 04:17:11;;;;;;;6.63;1.58;;;;;;;5.68;nan;100682.66;5011224;28;20022;-50
2022/03/30 04:19:39;;;;;;;13.48;2.03;;;;;;;5.67;nan;100677.56;5006138;28;20108;-51
2022/03/30 04:22:04;;;;;;;7.90;1.40;;;;;;;5.65;nan;100680.44;5011989;28;20026;-49
2022/03/30 04:24:30;;;;;;;12.45;1.92;;;;;;;5.64;nan;100678.81;5007899;28;20025;-47
2022/03/30 04:26:56;;;;;;;12.77;2.03;;;;;;;5.63;nan;100679.03;5007580;28;20988;-52
2022/03/30 04:29:21;;;;;;;10.77;2.13;;;;;;;5.61;nan;100681.09;5009167;28;20031;-51
2022/03/30 04:31:47;;;;;;;10.57;1.95;;;;;;;5.60;nan;100680.28;5006944;28;20033;-51
2022/03/30 04:34:12;;;;;;;11.48;2.30;;;;;;;5.59;nan;100681.31;5012830;28;20395;-48
2022/03/30 04:36:38;;;;;;;9.98;1.83;;;;;;;5.57;nan;100686.03;5012292;28;20075;-52
2022/03/30 04:39:03;;;;;;;14.25;3.38;;;;;;;5.57;nan;100687.88;5007034;28;20037;-52
2022/03/30 04:41:29;;;;;;;6.60;1.58;;;;;;;5.55;nan;100688.06;5007026;28;20017;-50
2022/03/30 04:43:54;;;;;;;11.90;2.58;;;;;;;5.53;nan;100690.13;5010634;28;20660;-52
2022/03/30 04:46:20;;;;;;;7.22;1.20;;;;;;;5.53;nan;100689.31;5009777;28;20114;-49
2022/03/30 04:48:45;;;;;;;17.10;2.58;;;;;;;5.50;nan;100690.56;5009064;28;20026;-52
2022/03/30 04:51:11;;;;;;;10.70;1.70;;;;;;;5.48;nan;100692.63;5011955;28;20476;-50
2022/03/30 04:53:36;;;;;;;14.40;2.85;;;;;;;5.46;nan;100698.16;5010450;28;20398;-51
2022/03/30 04:56:02;;;;;;;8.95;1.85;;;;;;;5.44;nan;100702.06;5011464;28;20048;-48
2022/03/30 04:58:28;;;;;;;7.82;2.05;;;;;;;5.43;nan;100703.91;5009940;28;20101;-48
2022/03/30 05:00:54;;;;;;;10.27;2.47;;;;;;;5.42;nan;100696.16;5010163;28;20033;-52
2022/03/30 05:03:20;;;;;;;16.42;2.28;;;;;;;5.41;nan;100694.53;5010806;28;20738;-50
2022/03/30 05:05:45;;;;;;;10.60;2.10;;;;;;;5.41;nan;100699.84;5013265;28;20068;-49
2022/03/30 05:08:11;;;;;;;8.70;2.15;;;;;;;5.38;nan;100694.94;5007527;28;20101;-51
2022/03/30 05:10:36;;;;;;;15.05;2.42;;;;;;;5.37;nan;100696.78;5004617;28;20026;-49
2022/03/30 05:13:04;;;;;;;12.52;2.40;;;;;;;5.37;nan;100698.63;5008644;28;20383;-50
2022/03/30 05:15:30;;;;;;;10.93;2.38;;;;;;;5.37;nan;100699.44;5006103;28;20230;-48
2022/03/30 05:17:56;;;;;;;15.20;2.53;;;;;;;5.36;nan;100699.66;5010771;28;20454;-48
2022/03/30 05:20:21;;;;;;;9.20;2.42;;;;;;;5.35;nan;100696.19;5011789;28;20033;-49
2022/03/30 05:22:47;;;;;;;9.10;2.78;;;;;;;5.35;nan;100695.38;5010339;28;20041;-52
2022/03/30 05:25:14;;;;;;;21.25;2.20;;;;;;;5.33;nan;100692.94;5007391;28;20140;-51
2022/03/30 05:27:40;;;;;;;16.17;2.00;;;;;;;5.32;nan;100693.16;5006329;28;20100;-49
2022/03/30 05:30:07;;;;;;;18.45;2.67;;;;;;;5.32;nan;100707.25;5007629;28;20057;-50
2022/03/30 05:32:34;;;;;;;11.07;2.20;;;;;;;5.31;nan;100695.00;5005278;28;20045;-51
2022/03/30 05:35:00;;;;;;;11.63;2.15;;;;;;;5.32;nan;100695.81;5005739;28;20021;-51
2022/03/30 05:37:25;;;;;;;11.85;1.92;;;;;;;5.32;nan;100701.94;5011594;28;20034;-51
2022/03/30 05:39:52;;;;;;;11.57;3.10;;;;;;;5.34;nan;100701.72;5007225;28;20522;-49
2022/03/30 05:42:18;;;;;;;9.98;2.10;;;;;;;5.34;nan;100699.06;5010527;28;20156;-49
2022/03/30 05:44:43;;;;;;;13.80;2.55;;;;;;;5.36;nan;100708.44;5008096;28;20137;-48
2022/03/30 05:47:09;;;;;;;13.18;1.95;;;;;;;5.37;nan;100698.63;5002894;28;20479;-50
2022/03/30 05:49:37;;;;;;;18.95;2.47;;;;;;;5.37;nan;100699.44;5011298;28;20384;-51
2022/03/30 05:52:03;;;;;;;13.20;2.40;;;;;;;5.39;nan;100694.75;5006199;28;20034;-52
2022/03/30 05:54:29;;;;;;;12.15;2.78;;;;;;;5.40;nan;100699.03;5012004;28;20640;-51
2022/03/30 05:57:01;;;;;;;13.50;2.20;;;;;;;5.43;nan;100700.44;5012582;28;20044;-50
2022/03/30 05:59:48;;;;;;;17.20;2.50;;;;;;;5.40;nan;100703.53;5005563;28;20121;-48
2022/03/30 06:02:15;;;;;;;11.18;2.15;;;;;;;5.47;nan;100698.97;5008762;28;20280;-49
2022/03/30 06:04:45;;;;;;;11.68;2.78;;;;;;;5.50;nan;100697.72;5007800;28;20056;-54
2022/03/30 06:07:11;;;;;;;13.52;2.75;;;;;;;5.49;nan;100699.56;5011609;28;20025;-53
2022/03/30 06:09:36;;;;;;;8.48;2.35;;;;;;;5.51;nan;100702.81;5011748;28;20047;-50
2022/03/30 06:12:06;;;;;;;11.85;3.10;;;;;;;5.55;nan;100706.66;5006888;28;20025;-49
2022/03/30 06:14:33;;;;;;;5.90;2.20;;;;;;;5.57;nan;100703.81;5012285;28;20471;-51
2022/03/30 06:17:00;;;;;;;7.32;2.28;;;;;;;5.58;nan;100710.75;5006290;28;20052;-50
2022/03/30 06:19:26;;;;;;;10.65;2.38;;;;;;;5.61;nan;100703.16;5010996;28;20041;-48
2022/03/30 06:21:52;;;;;;;9.27;1.80;;;;;;;5.66;nan;100713.16;5001845;28;20476;-50
2022/03/30 06:24:17;;;;;;;10.40;2.55;;;;;;;5.68;nan;100711.06;5005284;28;20037;-50
2022/03/30 06:26:43;;;;;;;6.15;2.28;;;;;;;5.71;nan;100714.09;5011251;28;20026;-48
2022/03/30 06:29:09;;;;;;;8.75;2.10;;;;;;;5.74;nan;100716.34;5011805;28;20053;-50
2022/03/30 06:31:35;;;;;;;7.60;2.20;;;;;;;5.79;nan;100720.22;5012090;28;20111;-50
2022/03/30 06:34:03;;;;;;;13.02;2.50;;;;;;;5.83;nan;100713.41;5011626;28;20052;-53
2022/03/30 06:36:29;;;;;;;8.55;2.13;;;;;;;5.89;nan;100715.19;5002993;28;20406;-48
2022/03/30 06:38:56;;;;;;;5.43;2.22;;;;;;;5.94;nan;100715.41;5010472;28;20033;-49
2022/03/30 06:41:23;;;;;;;6.20;2.50;;;;;;;5.96;nan;100718.66;5007114;28;20044;-48
2022/03/30 06:43:49;;;;;;;8.70;2.13;;;;;;;6.02;nan;100712.47;5005720;28;20033;-48
2022/03/30 06:46:15;;;;;;;6.95;1.77;;;;;;;6.06;nan;100711.78;5005112;28;20381;-49
2022/03/30 06:48:41;;;;;;;7.55;1.95;;;;;;;6.08;nan;100727.53;5009384;28;20060;-48
2022/03/30 06:51:07;;;;;;;10.20;2.70;;;;;;;6.11;nan;100710.34;5008486;28;20161;-52
2022/03/30 06:53:33;;;;;;;8.35;2.22;;;;;;;6.14;nan;100715.22;5008958;28;20029;-51
2022/03/30 06:55:59;;;;;;;8.63;2.17;;;;;;;6.17;nan;100717.44;5004120;28;20471;-50
2022/03/30 06:58:24;;;;;;;6.70;2.45;;;;;;;6.20;nan;100723.13;5005968;28;20061;-48
2022/03/30 07:00:51;;;;;;;6.75;2.13;;;;;;;6.25;nan;100723.28;5011753;28;20087;-52
2022/03/30 07:03:17;;;;;;;5.85;2.17;;;;;;;6.28;nan;100724.69;5008953;28;20025;-50
2022/03/30 07:05:43;;;;;;;6.90;2.45;;;;;;;6.32;nan;100731.22;5009316;28;20080;-51
2022/03/30 07:10:52;;;;;;;7.47;2.45;;;;;;;6.39;nan;100728.47;5010777;28;20116;-50
2022/03/30 07:13:19;;;;;;;8.75;2.50;;;;;;;6.45;nan;100735.56;5004856;28;20068;-48
2022/03/30 07:15:45;;;;;;;9.85;2.47;;;;;;;6.53;nan;100735.28;5008646;28;20025;-49
2022/03/30 07:18:10;;;;;;;8.95;2.90;;;;;;;6.60;nan;100731.50;5006384;28;20033;-49
2022/03/30 07:20:37;;;;;;;14.40;3.00;;;;;;;6.65;nan;100728.19;5008259;28;20029;-48
2022/03/30 07:23:03;;;;;;;8.48;3.05;;;;;;;6.73;nan;100729.72;5004492;28;20045;-49
2022/03/30 07:25:30;;;;;;;9.68;2.78;;;;;;;6.80;nan;100736.59;5008298;28;20502;-52
2022/03/30 07:28:03;;;;;;;7.03;3.17;;;;;;;6.90;nan;100731.56;5005380;28;20052;-49
2022/03/30 07:30:29;;;;;;;9.88;2.80;;;;;;;7.01;nan;100734.53;5000932;28;20534;-51
2022/03/30 07:32:57;;;;;;;10.07;3.00;;;;;;;7.08;nan;100728.06;5006235;28;20392;-47
2022/03/30 07:35:27;;;;;;;5.18;2.15;;;;;;;7.09;nan;100726.22;5008176;28;20021;-50
2022/03/30 07:37:53;;;;;;;6.75;2.13;;;;;;;7.15;nan;100733.28;5008466;28;20503;-47
2022/03/30 07:40:21;;;;;;;6.55;2.08;;;;;;;7.23;nan;100727.66;5010852;28;20436;-49
2022/03/30 07:42:48;;;;;;;7.75;2.28;;;;;;;7.31;nan;100732.66;5010197;28;20022;-50
2022/03/30 07:45:14;;;;;;;4.25;2.08;;;;;;;7.36;nan;100732.81;5005113;28;20432;-49
2022/03/30 07:47:39;;;;;;;4.45;2.15;;;;;;;7.41;nan;100727.59;5005382;28;20053;-49
2022/03/30 07:50:06;;;;;;;4.25;2.30;;;;;;;7.48;nan;100722.16;5009755;28;20040;-50
2022/03/30 07:52:32;;;;;;;8.88;2.95;;;;;;;7.53;nan;100720.44;5001128;28;20031;-52
2022/03/30 07:54:58;;;;;;;6.63;2.53;;;;;;;7.61;nan;100721.16;5009037;28;20547;-49
2022/03/30 07:57:27;;;;;;;8.55;2.50;;;;;;;7.69;nan;100726.16;5007922;28;20281;-50
2022/03/30 08:00:02;;;;;;;10.20;3.33;;;;;;;7.73;nan;100720.16;5012460;28;20041;-47
2022/03/30 08:02:28;;;;;;;11.07;2.75;;;;;;;7.81;nan;100722.47;5010191;28;20034;-48
2022/03/30 08:04:54;;;;;;;9.93;3.13;;;;;;;7.93;nan;100730.50;5013610;28;20131;-47
2022/03/30 08:07:21;;;;;;;9.07;2.47;;;;;;;7.98;nan;100732.47;5008227;28;20059;-47
2022/03/30 08:09:47;;;;;;;29.70;3.30;;;;;;;8.05;nan;100730.47;5008272;28;20030;-49
2022/03/30 08:12:14;;;;;;;11.57;2.90;;;;;;;8.12;nan;100725.84;5010974;28;20025;-48
2022/03/30 08:14:41;;;;;;;4.50;2.47;;;;;;;8.21;nan;100720.97;5011416;28;20033;-47
2022/03/30 08:17:06;;;;;;;7.53;2.90;;;;;;;8.30;nan;100716.91;5013378;28;20096;-48
2022/03/30 08:19:32;;;;;;;8.68;2.42;;;;;;;8.39;nan;100720.88;5010520;28;20037;-49
2022/03/30 08:24:48;;;;;;;5.40;2.33;;;;;;;8.61;nan;100716.53;5013979;28;20048;-50
2022/03/30 08:27:16;;;;;;;8.80;2.65;;;;;;;8.74;nan;100718.94;5011663;28;20530;-48
2022/03/30 08:29:43;;;;;;;7.72;3.28;;;;;;;8.85;nan;100713.81;5007555;28;20060;-49
2022/03/30 08:32:10;;;;;;;7.85;2.90;;;;;;;8.91;nan;100720.88;5011425;28;20022;-48
2022/03/30 08:34:35;;;;;;;7.93;2.92;;;;;;;8.93;nan;100722.25;5007972;28;20447;-48
2022/03/30 08:37:01;;;;;;;9.40;3.75;;;;;;;9.00;nan;100724.81;5009080;28;20469;-47
2022/03/30 08:39:27;;;;;;;12.90;2.92;;;;;;;9.11;nan;100731.94;5004910;28;20105;-48
2022/03/30 08:41:53;;;;;;;7.85;2.83;;;;;;;9.13;nan;100723.69;5005255;28;20087;-48
2022/03/30 08:44:20;;;;;;;6.50;2.88;;;;;;;9.21;nan;100729.47;5012775;28;20108;-48
2022/03/30 08:46:46;;;;;;;5.15;2.67;;;;;;;9.25;nan;100730.63;5012712;28;20638;-48
2022/03/30 08:49:13;;;;;;;9.90;2.95;;;;;;;9.29;nan;100726.41;5011443;28;20037;-47
2022/03/30 08:51:40;;;;;;;6.07;2.65;;;;;;;9.37;nan;100736.72;5013061;28;20327;-47
2022/03/30 08:54:10;;;;;;;4.47;2.38;;;;;;;9.45;nan;100737.38;5003387;28;20120;-47
2022/03/30 08:56:37;;;;;;;6.85;2.78;;;;;;;9.55;nan;100734.91;5008141;28;20395;-47
2022/03/30 08:59:04;;;;;;;5.65;2.45;;;;;;;9.68;nan;100734.56;5008879;28;20036;-48
2022/03/30 09:01:35;;;;;;;6.43;2.00;;;;;;;9.82;nan;100733.19;5005843;28;20283;-47
2022/03/30 09:04:03;;;;;;;4.78;2.00;;;;;;;9.98;nan;100731.56;5010823;28;20022;-47
2022/03/30 09:06:43;;;;;;;5.75;2.03;;;;;;;10.12;nan;100732.88;5008815;28;20064;-47
2022/03/30 09:09:10;;;;;;;3.35;1.80;;;;;;;10.27;nan;100733.13;5011159;28;20036;-47
2022/03/30 09:11:41;;;;;;;5.40;2.10;;;;;;;10.38;nan;100731.38;5011471;28;20037;-48
2022/03/30 09:14:12;;;;;;;3.95;1.80;;;;;;;10.51;nan;100733.72;5007243;28;20044;-47
2022/03/30 09:16:38;;;;;;;5.32;1.95;;;;;;;10.64;nan;100724.50;5011013;28;20029;-47
2022/03/30 09:19:05;;;;;;;3.63;1.80;;;;;;;10.74;nan;100723.81;5010883;28;20034;-47
2022/03/30 09:21:46;;;;;;;5.00;1.70;;;;;;;10.77;nan;100728.66;5010387;28;20034;-48
2022/03/30 09:24:13;;;;;;;2.75;1.50;;;;;;;10.74;nan;100726.50;5011387;28;20036;-48
2022/03/30 09:26:38;;;;;;;4.32;1.23;;;;;;;10.70;nan;100725.38;5011926;28;20577;-47
2022/03/30 09:29:05;;;;;;;3.42;0.95;;;;;;;10.75;nan;100731.59;5010908;28;20041;-48
2022/03/30 09:31:31;;;;;;;5.75;1.45;;;;;;;10.84;nan;100723.94;5004356;28;20030;-47
2022/03/30 09:34:05;;;;;;;5.50;1.45;;;;;;;10.94;nan;100723.25;5009600;28;20450;-47
2022/03/30 09:36:34;;;;;;;5.45;1.55;;;;;;;11.02;nan;100720.94;5008670;28;20556;-47
2022/03/30 09:38:59;;;;;;;4.35;1.65;;;;;;;11.08;nan;100714.56;5011871;28;20109;-48
2022/03/30 09:41:25;;;;;;;4.43;1.17;;;;;;;11.17;nan;100710.38;5006398;28;20113;-48
2022/03/30 09:44:11;;;;;;;6.43;1.45;;;;;;;11.14;nan;100697.50;5010479;28;20633;-47
2022/03/30 09:46:55;;;;;;;4.93;1.20;;;;;;;11.23;nan;100705.88;5009104;28;20042;-48
2022/03/30 09:49:43;;;;;;;2.75;0.95;;;;;;;11.31;nan;100707.28;5009570;28;20030;-47
2022/03/30 09:52:17;;;;;;;2.58;1.10;;;;;;;11.40;nan;100705.78;5008562;28;20037;-48
2022/03/30 09:54:59;;;;;;;2.92;1.02;;;;;;;11.41;nan;100708.19;5008380;28;20577;-47
2022/03/30 09:57:32;;;;;;;3.63;0.90;;;;;;;11.47;nan;100701.81;5007291;28;20111;-48
2022/03/30 10:00:12;;;;;;;3.30;1.00;;;;;;;11.51;nan;100702.13;5012715;28;20487;-48
2022/03/30 10:02:45;;;;;;;2.72;0.95;;;;;;;11.54;nan;100695.44;5007339;28;20297;-48
2022/03/30 10:05:14;;;;;;;4.50;0.98;;;;;;;11.59;nan;100695.47;5010387;28;20021;-48
2022/03/30 10:07:40;;;;;;;1.92;0.80;;;;;;;11.69;nan;100684.81;5004346;28;20033;-47
2022/03/30 10:10:08;;;;;;;2.47;1.10;;;;;;;11.79;nan;100696.47;5009670;28;20029;-47
2022/03/30 10:12:35;;;;;;;2.45;0.80;;;;;;;11.81;nan;100693.53;5003641;28;20540;-47
2022/03/30 10:15:00;;;;;;;3.42;0.90;;;;;;;11.81;nan;100693.53;5007708;28;20083;-48
2022/03/30 10:17:30;;;;;;;2.67;1.00;;;;;;;11.89;nan;100689.56;5005463;28;20037;-48
2022/03/30 10:19:58;;;;;;;2.45;1.05;;;;;;;12.00;nan;100684.00;5007582;28;20033;-48
2022/03/30 10:22:52;;;;;;;2.63;1.02;;;;;;;12.06;nan;100687.53;5006316;28;20573;-47
2022/03/30 10:25:43;;;;;;;2.60;0.82;;;;;;;12.26;nan;100684.97;5006212;28;20124;-47
2022/03/30 10:28:24;;;;;;;2.67;1.00;;;;;;;12.43;nan;100681.28;5009813;28;20513;-49
2022/03/30 10:30:54;;;;;;;3.47;0.80;;;;;;;12.50;nan;100679.16;5004338;28;20514;-47
2022/03/30 10:33:36;;;;;;;2.00;0.80;;;;;;;12.52;nan;100667.06;5005846;28;20042;-48
2022/03/30 10:36:20;;;;;;;2.53;0.68;;;;;;;12.60;nan;100671.16;4999395;28;20048;-50
2022/03/30 10:39:16;;;;;;;2.05;0.93;;;;;;;12.64;nan;100672.22;5004817;28;20021;-48
2022/03/30 10:41:54;;;;;;;0.88;0.52;;;;;;;12.66;nan;100664.72;5005484;28;20030;-49
2022/03/30 10:44:43;;;;;;;1.50;0.50;;;;;;;12.69;nan;100658.81;5005593;28;20040;-46
2022/03/30 10:47:20;;;;;;;1.13;0.52;;;;;;;12.73;nan;100670.63;5008381;28;20025;-48
2022/03/30 10:49:57;;;;;;;1.77;0.57;;;;;;;12.76;nan;100663.94;5005876;28;20257;-47
2022/03/30 10:52:42;;;;;;;1.30;0.68;;;;;;;12.73;nan;100665.25;5009536;28;20470;-48
2022/03/30 10:55:13;;;;;;;1.75;0.60;;;;;;;12.77;nan;100668.25;5010459;28;20045;-50
2022/03/30 10:57:52;;;;;;;1.90;0.63;;;;;;;12.80;nan;100660.47;4999457;28;20419;-47
2022/03/30 11:00:18;;;;;;;1.67;0.75;;;;;;;12.85;nan;100662.34;5004752;28;20053;-47
2022/03/30 11:02:45;;;;;;;3.05;0.70;;;;;;;12.85;nan;100659.66;5009233;28;20060;-50
2022/03/30 11:05:18;;;;;;;2.25;0.55;;;;;;;12.86;nan;100663.97;5005897;28;20029;-48
2022/03/30 11:07:44;;;;;;;2.65;0.60;;;;;;;12.92;nan;100663.69;5003752;28;20028;-49
2022/03/30 11:10:27;;;;;;;1.08;0.45;;;;;;;12.93;nan;100659.16;5007363;28;20395;-48
2022/03/30 11:13:11;;;;;;;1.80;0.60;;;;;;;12.99;nan;100664.28;5006177;28;20123;-50
2022/03/30 11:15:59;;;;;;;1.33;0.70;;;;;;;12.93;nan;100665.34;5001918;28;20532;-47
2022/03/30 11:18:26;;;;;;;2.25;0.80;;;;;;;13.04;nan;100654.59;5010159;28;20017;-48
2022/03/30 11:21:12;;;;;;;1.50;0.55;;;;;;;13.04;nan;100657.28;5005866;28;20531;-49
2022/03/30 11:23:39;;;;;;;2.17;0.73;;;;;;;13.13;nan;100650.31;5005673;28;20033;-50
2022/03/30 11:26:05;;;;;;;3.78;0.77;;;;;;;13.19;nan;100652.75;5006788;28;20079;-49
2022/03/30 11:28:40;;;;;;;3.05;0.65;;;;;;;13.20;nan;100653.56;4999757;28;20034;-46
2022/03/30 11:31:26;;;;;;;1.95;0.60;;;;;;;13.18;nan;100653.03;5007838;28;20496;-47
2022/03/30 11:34:31;;;;;;;1.20;0.52;;;;;;;13.23;nan;100648.47;5012164;28;20055;-47
2022/03/30 11:36:58;;;;;;;1.47;0.53;;;;;;;13.35;nan;100644.72;5009682;28;20471;-47
2022/03/30 11:39:33;;;;;;;2.15;0.65;;;;;;;13.37;nan;100643.38;5015888;28;20319;-48
2022/03/30 11:42:00;;;;;;;0.82;0.60;;;;;;;13.45;nan;100645.50;5007664;28;20036;-47
2022/03/30 11:47:13;;;;;;;2.00;0.70;;;;;;;13.62;nan;100639.84;5007783;28;20602;-48
2022/03/30 11:50:08;;;;;;;0.57;0.30;;;;;;;13.60;nan;100644.69;5007223;28;20044;-46
2022/03/30 11:52:34;;;;;;;1.35;0.75;;;;;;;13.71;nan;100634.75;4965613;28;20042;-48
2022/03/30 11:54:59;;;;;;;1.88;0.80;;;;;;;13.72;nan;100645.22;5006126;28;20049;-47
2022/03/30 11:57:25;;;;;;;1.98;0.60;;;;;;;13.74;nan;100637.69;5010174;28;20069;-47
2022/03/30 12:00:00;;;;;;;2.55;1.00;;;;;;;13.74;nan;100642.25;5007507;28;20483;-50
2022/03/30 12:02:27;;;;;;;2.55;0.75;;;;;;;13.78;nan;100635.25;5011088;28;20057;-48